createdAt,value
2017-03-18T00:00:53.120Z,0
2017-03-18T00:01:54.359Z,0
2017-03-18T00:02:55.624Z,0
2017-03-18T00:03:56.893Z,0
2017-03-18T00:04:58.124Z,0
2017-03-18T00:05:59.375Z,0
2017-03-18T00:07:00.617Z,0
2017-03-18T00:08:01.853Z,0
2017-03-18T00:09:03.091Z,0
2017-03-18T00:10:04.379Z,0
2017-03-18T00:11:05.626Z,0
2017-03-18T00:12:06.886Z,0
2017-03-18T00:13:08.118Z,0
2017-03-18T00:14:09.395Z,0
2017-03-18T00:15:10.611Z,0
2017-03-18T00:16:11.865Z,0
2017-03-18T00:17:13.193Z,0
2017-03-18T00:18:14.423Z,0
2017-03-18T00:19:15.677Z,0
2017-03-18T00:20:16.889Z,0
2017-03-18T00:21:18.214Z,0
2017-03-18T00:22:19.471Z,0
2017-03-18T00:23:20.710Z,0
2017-03-18T00:24:21.960Z,0
2017-03-18T00:25:23.208Z,0
2017-03-18T00:26:24.467Z,0
2017-03-18T00:27:25.695Z,0
2017-03-18T00:28:26.942Z,0
2017-03-18T00:29:28.176Z,0
2017-03-18T00:30:29.412Z,0
2017-03-18T00:31:30.685Z,0
2017-03-18T00:32:31.915Z,0
2017-03-18T00:33:33.134Z,0
2017-03-18T00:34:34.368Z,0
2017-03-18T00:35:35.641Z,0
2017-03-18T00:36:36.908Z,0
2017-03-18T00:37:38.155Z,0
2017-03-18T00:38:39.503Z,0
2017-03-18T00:39:40.717Z,0
2017-03-18T00:40:41.956Z,0
2017-03-18T00:41:43.187Z,0
2017-03-18T00:42:44.434Z,0
2017-03-18T00:43:45.803Z,0
2017-03-18T00:44:47.108Z,0
2017-03-18T00:45:48.386Z,0
2017-03-18T00:46:49.587Z,0
2017-03-18T00:47:50.850Z,0
2017-03-18T00:48:52.088Z,0
2017-03-18T00:49:53.348Z,0
2017-03-18T00:50:54.598Z,0
2017-03-18T00:51:55.828Z,0
2017-03-18T00:52:57.078Z,0
2017-03-18T00:53:58.311Z,0
2017-03-18T00:54:59.547Z,0
2017-03-18T00:56:00.786Z,0
2017-03-18T00:57:02.021Z,0
2017-03-18T00:58:03.290Z,0
2017-03-18T00:59:04.504Z,0
2017-03-18T01:00:05.739Z,0
2017-03-18T01:01:07.120Z,0
2017-03-18T01:02:08.248Z,0
2017-03-18T01:03:09.626Z,0
2017-03-18T01:04:10.831Z,0
2017-03-18T01:05:12.083Z,0
2017-03-18T01:06:13.325Z,0
2017-03-18T01:07:14.557Z,0
2017-03-18T01:08:15.870Z,0
2017-03-18T01:09:17.125Z,0
2017-03-18T01:10:18.372Z,0
2017-03-18T01:11:19.623Z,0
2017-03-18T01:12:20.841Z,0
2017-03-18T01:13:22.151Z,0
2017-03-18T01:14:23.408Z,0
2017-03-18T01:15:24.681Z,0
2017-03-18T01:16:25.931Z,0
2017-03-18T01:17:27.148Z,0
2017-03-18T01:18:28.413Z,0
2017-03-18T01:19:29.630Z,0
2017-03-18T01:20:30.886Z,0
2017-03-18T01:21:32.114Z,0
2017-03-18T01:22:33.372Z,0
2017-03-18T01:23:34.622Z,0
2017-03-18T01:24:35.901Z,0
2017-03-18T01:25:37.171Z,0
2017-03-18T01:26:38.388Z,0
2017-03-18T01:27:39.619Z,0
2017-03-18T01:28:40.859Z,0
2017-03-18T01:29:42.106Z,0
2017-03-18T01:30:43.409Z,0
2017-03-18T01:31:44.664Z,0
2017-03-18T01:32:45.913Z,0
2017-03-18T01:33:47.164Z,0
2017-03-18T01:34:48.401Z,0
2017-03-18T01:35:49.646Z,0
2017-03-18T01:36:50.883Z,0
2017-03-18T01:37:52.145Z,0
2017-03-18T01:38:53.372Z,0
2017-03-18T01:39:54.604Z,0
2017-03-18T01:40:55.922Z,0
2017-03-18T01:41:57.478Z,0
2017-03-18T01:42:58.766Z,0
2017-03-18T01:44:00.038Z,0
2017-03-18T01:45:01.352Z,0
2017-03-18T01:46:02.588Z,0
2017-03-18T01:47:03.850Z,0
2017-03-18T01:48:05.105Z,0
2017-03-18T01:49:06.345Z,0
2017-03-18T01:50:07.573Z,0
2017-03-18T01:51:08.817Z,0
2017-03-18T01:52:10.112Z,0
2017-03-18T01:53:11.370Z,0
2017-03-18T01:54:12.596Z,0
2017-03-18T01:55:13.839Z,0
2017-03-18T01:56:15.117Z,0
2017-03-18T01:57:16.357Z,0
2017-03-18T01:58:17.586Z,0
2017-03-18T01:59:18.867Z,0
2017-03-18T02:00:20.121Z,0
2017-03-18T02:01:21.355Z,0
2017-03-18T02:02:22.601Z,0
2017-03-18T02:03:23.847Z,0
2017-03-18T02:04:25.120Z,0
2017-03-18T02:05:26.400Z,0
2017-03-18T02:06:27.815Z,0
2017-03-18T02:07:29.049Z,0
2017-03-18T02:08:30.299Z,0
2017-03-18T02:09:31.546Z,0
2017-03-18T02:10:32.830Z,0
2017-03-18T02:11:34.065Z,0
2017-03-18T02:12:35.288Z,0
2017-03-18T02:13:36.666Z,0
2017-03-18T02:14:37.925Z,0
2017-03-18T02:15:39.239Z,0
2017-03-18T02:16:40.475Z,0
2017-03-18T02:17:41.836Z,0
2017-03-18T02:18:43.096Z,0
2017-03-18T02:19:44.311Z,0
2017-03-18T02:20:45.550Z,0
2017-03-18T02:21:46.807Z,0
2017-03-18T02:22:48.050Z,0
2017-03-18T02:23:49.306Z,0
2017-03-18T02:24:50.597Z,0
2017-03-18T02:25:51.851Z,0
2017-03-18T02:26:53.092Z,0
2017-03-18T02:27:54.333Z,0
2017-03-18T02:28:55.580Z,0
2017-03-18T02:29:56.838Z,0
2017-03-18T02:30:58.118Z,0
2017-03-18T02:31:59.377Z,0
2017-03-18T02:33:00.646Z,0
2017-03-18T02:34:01.887Z,0
2017-03-18T02:35:03.188Z,0
2017-03-18T02:36:04.438Z,0
2017-03-18T02:37:05.790Z,0
2017-03-18T02:38:07.063Z,0
2017-03-18T02:39:08.307Z,0
2017-03-18T02:40:09.594Z,0
2017-03-18T02:41:10.871Z,0
2017-03-18T02:42:12.105Z,0
2017-03-18T02:43:13.346Z,0
2017-03-18T02:44:14.670Z,0
2017-03-18T02:45:15.919Z,0
2017-03-18T02:46:17.219Z,0
2017-03-18T02:47:18.468Z,0
2017-03-18T02:48:19.681Z,0
2017-03-18T02:49:21.030Z,0
2017-03-18T02:50:22.259Z,0
2017-03-18T02:51:23.497Z,0
2017-03-18T02:52:24.735Z,0
2017-03-18T02:53:25.965Z,0
2017-03-18T02:54:27.212Z,0
2017-03-18T02:55:28.449Z,0
2017-03-18T02:56:29.693Z,0
2017-03-18T02:57:30.971Z,0
2017-03-18T02:58:32.207Z,0
2017-03-18T02:59:33.444Z,0
2017-03-18T03:00:34.694Z,0
2017-03-18T03:01:35.942Z,0
2017-03-18T03:02:37.238Z,0
2017-03-18T03:03:38.618Z,0
2017-03-18T03:04:39.838Z,0
2017-03-18T03:05:41.111Z,0
2017-03-18T03:06:42.346Z,0
2017-03-18T03:07:43.583Z,0
2017-03-18T03:08:44.844Z,0
2017-03-18T03:09:46.163Z,0
2017-03-18T03:10:47.390Z,0
2017-03-18T03:11:48.619Z,0
2017-03-18T03:12:49.864Z,0
2017-03-18T03:13:51.119Z,0
2017-03-18T03:14:52.381Z,0
2017-03-18T03:15:53.621Z,0
2017-03-18T03:16:54.866Z,0
2017-03-18T03:17:56.106Z,0
2017-03-18T03:18:57.347Z,0
2017-03-18T03:19:58.619Z,0
2017-03-18T03:20:59.845Z,0
2017-03-18T03:22:01.072Z,0
2017-03-18T03:23:02.331Z,0
2017-03-18T03:24:03.726Z,0
2017-03-18T03:25:04.948Z,0
2017-03-18T03:26:06.187Z,0
2017-03-18T03:27:07.447Z,0
2017-03-18T03:28:08.797Z,0
2017-03-18T03:29:10.154Z,0
2017-03-18T03:30:11.426Z,0
2017-03-18T03:31:12.667Z,0
2017-03-18T03:32:13.908Z,0
2017-03-18T03:33:15.208Z,0
2017-03-18T03:34:16.455Z,0
2017-03-18T03:35:17.774Z,0
2017-03-18T03:36:19.148Z,0
2017-03-18T03:37:20.389Z,0
2017-03-18T03:38:21.620Z,0
2017-03-18T03:39:22.887Z,0
2017-03-18T03:40:24.115Z,0
2017-03-18T03:41:25.376Z,0
2017-03-18T03:42:26.604Z,0
2017-03-18T03:43:27.846Z,0
2017-03-18T03:44:29.085Z,0
2017-03-18T03:45:30.373Z,0
2017-03-18T03:46:31.676Z,0
2017-03-18T03:47:32.914Z,0
2017-03-18T03:48:34.165Z,0
2017-03-18T03:49:35.503Z,0
2017-03-18T03:50:36.741Z,0
2017-03-18T03:51:37.999Z,0
2017-03-18T03:52:39.243Z,0
2017-03-18T03:53:40.504Z,0
2017-03-18T03:54:41.721Z,0
2017-03-18T03:55:42.977Z,0
2017-03-18T03:56:44.246Z,0
2017-03-18T03:57:45.487Z,0
2017-03-18T03:58:46.744Z,0
2017-03-18T03:59:47.997Z,0
2017-03-18T04:00:49.279Z,0
2017-03-18T04:01:50.501Z,0
2017-03-18T04:02:51.742Z,0
2017-03-18T04:03:52.990Z,0
2017-03-18T04:04:54.332Z,0
2017-03-18T04:05:55.601Z,0
2017-03-18T04:06:56.828Z,0
2017-03-18T04:07:58.065Z,0
2017-03-18T04:08:59.345Z,0
2017-03-18T04:10:00.607Z,0
2017-03-18T04:11:01.845Z,0
2017-03-18T04:12:03.087Z,0
2017-03-18T04:13:04.369Z,0
2017-03-18T04:14:05.601Z,0
2017-03-18T04:15:06.853Z,0
2017-03-18T04:16:08.116Z,0
2017-03-18T04:17:09.354Z,0
2017-03-18T04:18:10.634Z,0
2017-03-18T04:19:11.852Z,0
2017-03-18T04:20:13.091Z,0
2017-03-18T04:21:14.329Z,0
2017-03-18T04:22:15.552Z,0
2017-03-18T04:23:16.786Z,0
2017-03-18T04:24:18.034Z,0
2017-03-18T04:25:19.285Z,0
2017-03-18T04:26:20.602Z,0
2017-03-18T04:27:21.899Z,0
2017-03-18T04:28:23.177Z,0
2017-03-18T04:29:24.402Z,0
2017-03-18T04:30:25.640Z,0
2017-03-18T04:31:26.923Z,0
2017-03-18T04:32:28.171Z,0
2017-03-18T04:33:29.535Z,0
2017-03-18T04:34:30.750Z,0
2017-03-18T04:35:31.999Z,0
2017-03-18T04:36:33.256Z,0
2017-03-18T04:37:34.501Z,0
2017-03-18T04:38:35.742Z,0
2017-03-18T04:39:36.973Z,0
2017-03-18T04:40:38.206Z,0
2017-03-18T04:41:39.475Z,0
2017-03-18T04:42:40.714Z,0
2017-03-18T04:43:42.047Z,0
2017-03-18T04:44:43.333Z,0
2017-03-18T04:45:44.657Z,0
2017-03-18T04:46:45.888Z,0
2017-03-18T04:47:47.127Z,0
2017-03-18T04:48:48.365Z,0
2017-03-18T04:49:49.595Z,0
2017-03-18T04:50:50.876Z,0
2017-03-18T04:51:52.115Z,0
2017-03-18T04:52:53.412Z,0
2017-03-18T04:53:54.655Z,0
2017-03-18T04:54:55.890Z,0
2017-03-18T04:55:57.322Z,0
2017-03-18T04:56:58.489Z,0
2017-03-18T04:57:59.741Z,0
2017-03-18T04:59:00.981Z,0
2017-03-18T05:00:02.220Z,0
2017-03-18T05:01:03.461Z,0
2017-03-18T05:02:04.699Z,0
2017-03-18T05:03:06.016Z,0
2017-03-18T05:04:07.367Z,0
2017-03-18T05:05:08.600Z,0
2017-03-18T05:06:09.864Z,0
2017-03-18T05:07:11.084Z,0
2017-03-18T05:08:12.321Z,0
2017-03-18T05:09:13.573Z,0
2017-03-18T05:10:14.929Z,0
2017-03-18T05:11:16.161Z,0
2017-03-18T05:12:17.392Z,0
2017-03-18T05:13:18.626Z,0
2017-03-18T05:14:19.870Z,0
2017-03-18T05:15:21.173Z,0
2017-03-18T05:16:22.366Z,4
2017-03-18T05:17:23.606Z,4
2017-03-18T05:18:24.850Z,0
2017-03-18T05:19:26.074Z,4
2017-03-18T05:20:27.337Z,4
2017-03-18T05:21:28.575Z,4
2017-03-18T05:22:29.844Z,4
2017-03-18T05:23:31.077Z,8
2017-03-18T05:24:32.312Z,8
2017-03-18T05:25:33.543Z,8
2017-03-18T05:26:34.788Z,8
2017-03-18T05:27:36.027Z,12
2017-03-18T05:28:37.318Z,12
2017-03-18T05:29:38.745Z,16
2017-03-18T05:30:39.974Z,12
2017-03-18T05:31:41.315Z,16
2017-03-18T05:32:42.553Z,16
2017-03-18T05:33:43.812Z,20
2017-03-18T05:34:45.043Z,28
2017-03-18T05:35:46.258Z,24
2017-03-18T05:36:47.543Z,32
2017-03-18T05:37:48.927Z,32
2017-03-18T05:38:50.158Z,32
2017-03-18T05:39:51.419Z,36
2017-03-18T05:40:52.682Z,44
2017-03-18T05:41:53.965Z,56
2017-03-18T05:42:55.206Z,60
2017-03-18T05:43:56.448Z,72
2017-03-18T05:44:57.684Z,64
2017-03-18T05:45:58.914Z,72
2017-03-18T05:47:00.161Z,60
2017-03-18T05:48:01.391Z,84
2017-03-18T05:49:02.622Z,68
2017-03-18T05:50:03.861Z,84
2017-03-18T05:51:05.101Z,76
2017-03-18T05:52:06.334Z,104
2017-03-18T05:53:07.570Z,92
2017-03-18T05:54:08.815Z,96
2017-03-18T05:55:10.083Z,104
2017-03-18T05:56:11.349Z,96
2017-03-18T05:57:12.571Z,120
2017-03-18T05:58:13.818Z,124
2017-03-18T05:59:15.054Z,120
2017-03-18T06:00:16.290Z,156
2017-03-18T06:01:17.549Z,172
2017-03-18T06:02:18.963Z,224
2017-03-18T06:03:20.079Z,288
2017-03-18T06:04:21.330Z,280
2017-03-18T06:05:22.599Z,228
2017-03-18T06:06:23.824Z,244
2017-03-18T06:07:25.058Z,236
2017-03-18T06:08:26.295Z,196
2017-03-18T06:09:27.577Z,220
2017-03-18T06:10:28.931Z,256
2017-03-18T06:11:30.172Z,308
2017-03-18T06:12:31.407Z,316
2017-03-18T06:13:32.631Z,340
2017-03-18T06:14:33.873Z,296
2017-03-18T06:15:35.131Z,304
2017-03-18T06:16:36.371Z,232
2017-03-18T06:17:37.609Z,272
2017-03-18T06:18:38.842Z,304
2017-03-18T06:19:40.084Z,328
2017-03-18T06:20:41.342Z,412
2017-03-18T06:21:42.570Z,480
2017-03-18T06:22:43.885Z,520
2017-03-18T06:23:45.125Z,548
2017-03-18T06:24:46.361Z,524
2017-03-18T06:25:47.592Z,608
2017-03-18T06:26:48.848Z,604
2017-03-18T06:27:50.168Z,624
2017-03-18T06:28:51.427Z,660
2017-03-18T06:29:52.668Z,544
2017-03-18T06:30:53.917Z,676
2017-03-18T06:31:55.176Z,592
2017-03-18T06:32:56.424Z,628
2017-03-18T06:33:57.643Z,568
2017-03-18T06:34:58.917Z,632
2017-03-18T06:36:00.180Z,896
2017-03-18T06:37:01.445Z,864
2017-03-18T06:38:02.674Z,952
2017-03-18T06:39:03.929Z,852
2017-03-18T06:40:05.162Z,860
2017-03-18T06:41:06.398Z,848
2017-03-18T06:42:07.759Z,712
2017-03-18T06:43:09.009Z,788
2017-03-18T06:44:10.288Z,1068
2017-03-18T06:45:11.539Z,1028
2017-03-18T06:46:12.786Z,1044
2017-03-18T06:47:14.021Z,1012
2017-03-18T06:48:15.266Z,1068
2017-03-18T06:49:16.580Z,1164
2017-03-18T06:50:17.780Z,1048
2017-03-18T06:51:19.174Z,1196
2017-03-18T06:52:20.393Z,880
2017-03-18T06:53:21.641Z,872
2017-03-18T06:54:22.885Z,832
2017-03-18T06:55:24.138Z,1084
2017-03-18T06:56:25.411Z,1024
2017-03-18T06:57:26.649Z,1300
2017-03-18T06:58:27.892Z,1336
2017-03-18T06:59:29.136Z,1212
2017-03-18T07:00:30.375Z,1340
2017-03-18T07:01:31.626Z,1140
2017-03-18T07:02:32.869Z,1476
2017-03-18T07:03:34.132Z,1208
2017-03-18T07:04:35.439Z,1008
2017-03-18T07:05:36.639Z,1056
2017-03-18T07:06:37.877Z,1416
2017-03-18T07:07:39.114Z,1084
2017-03-18T07:08:40.361Z,1444
2017-03-18T07:09:41.600Z,1592
2017-03-18T07:10:42.839Z,1364
2017-03-18T07:11:44.113Z,1408
2017-03-18T07:12:45.309Z,1456
2017-03-18T07:13:46.570Z,1400
2017-03-18T07:14:47.938Z,960
2017-03-18T07:15:49.199Z,1040
2017-03-18T07:16:50.412Z,1116
2017-03-18T07:17:51.656Z,1528
2017-03-18T07:18:52.891Z,1824
2017-03-18T07:19:54.136Z,1612
2017-03-18T07:20:55.472Z,1764
2017-03-18T07:21:56.786Z,1932
2017-03-18T07:22:58.029Z,2352
2017-03-18T07:23:59.362Z,1780
2017-03-18T07:25:00.614Z,2188
2017-03-18T07:26:01.890Z,1488
2017-03-18T07:27:03.129Z,1124
2017-03-18T07:28:04.382Z,880
2017-03-18T07:29:05.668Z,992
2017-03-18T07:30:06.904Z,1204
2017-03-18T07:31:08.176Z,1976
2017-03-18T07:32:09.421Z,2028
2017-03-18T07:33:10.663Z,2700
2017-03-18T07:34:12.034Z,2572
2017-03-18T07:35:13.298Z,2072
2017-03-18T07:36:14.519Z,2648
2017-03-18T07:37:15.751Z,2048
2017-03-18T07:38:16.987Z,1984
2017-03-18T07:39:18.304Z,2588
2017-03-18T07:40:19.580Z,2496
2017-03-18T07:41:20.858Z,2712
2017-03-18T07:42:22.123Z,2888
2017-03-18T07:43:23.428Z,3028
2017-03-18T07:44:24.681Z,3200
2017-03-18T07:45:26.058Z,2888
2017-03-18T07:46:27.273Z,2404
2017-03-18T07:47:28.514Z,2188
2017-03-18T07:48:29.759Z,1624
2017-03-18T07:49:31.011Z,1848
2017-03-18T07:50:32.277Z,1968
2017-03-18T07:51:33.588Z,2172
2017-03-18T07:52:34.839Z,2372
2017-03-18T07:53:36.074Z,2740
2017-03-18T07:54:37.330Z,2656
2017-03-18T07:55:38.583Z,3268
2017-03-18T07:56:39.821Z,2412
2017-03-18T07:57:41.068Z,2204
2017-03-18T07:58:42.301Z,2192
2017-03-18T07:59:43.645Z,2480
2017-03-18T08:00:44.880Z,2856
2017-03-18T08:01:46.134Z,2520
2017-03-18T08:02:47.371Z,2292
2017-03-18T08:03:48.621Z,2200
2017-03-18T08:04:49.979Z,2000
2017-03-18T08:05:51.218Z,2744
2017-03-18T08:06:52.464Z,3012
2017-03-18T08:07:53.706Z,2892
2017-03-18T08:08:54.947Z,3024
2017-03-18T08:09:56.216Z,2472
2017-03-18T08:10:57.504Z,2200
2017-03-18T08:11:58.767Z,3332
2017-03-18T08:13:00.052Z,2628
2017-03-18T08:14:01.306Z,2520
2017-03-18T08:15:02.569Z,2748
2017-03-18T08:16:03.819Z,2964
2017-03-18T08:17:05.078Z,4160
2017-03-18T08:18:06.331Z,3188
2017-03-18T08:19:07.572Z,3404
2017-03-18T08:20:08.815Z,2992
2017-03-18T08:21:10.057Z,2644
2017-03-18T08:22:11.469Z,3272
2017-03-18T08:23:12.616Z,2668
2017-03-18T08:24:13.923Z,3004
2017-03-18T08:25:15.162Z,3780
2017-03-18T08:26:16.403Z,3428
2017-03-18T08:27:17.639Z,3144
2017-03-18T08:28:18.881Z,2852
2017-03-18T08:29:20.134Z,2448
2017-03-18T08:30:21.391Z,2324
2017-03-18T08:31:22.630Z,1992
2017-03-18T08:32:23.887Z,1684
2017-03-18T08:33:25.146Z,2016
2017-03-18T08:34:26.442Z,2036
2017-03-18T08:35:27.705Z,3108
2017-03-18T08:36:29.082Z,3392
2017-03-18T08:37:30.330Z,3224
2017-03-18T08:38:31.623Z,3264
2017-03-18T08:39:32.854Z,2752
2017-03-18T08:40:34.121Z,2596
2017-03-18T08:41:35.431Z,2740
2017-03-18T08:42:36.614Z,2448
2017-03-18T08:43:37.903Z,2724
2017-03-18T08:44:39.150Z,3432
2017-03-18T08:45:40.389Z,3132
2017-03-18T08:46:41.660Z,2352
2017-03-18T08:47:42.884Z,2632
2017-03-18T08:48:44.215Z,2708
2017-03-18T08:49:45.454Z,3068
2017-03-18T08:50:46.690Z,2816
2017-03-18T08:51:47.923Z,2928
2017-03-18T08:52:49.159Z,2060
2017-03-18T08:53:50.501Z,1992
2017-03-18T08:54:51.805Z,2260
2017-03-18T08:55:53.123Z,1772
2017-03-18T08:56:54.370Z,1644
2017-03-18T08:57:55.619Z,2676
2017-03-18T08:58:56.859Z,2724
2017-03-18T08:59:58.098Z,2544
2017-03-18T09:00:59.375Z,2032
2017-03-18T09:02:00.679Z,2556
2017-03-18T09:03:01.951Z,2712
2017-03-18T09:04:03.192Z,3460
2017-03-18T09:05:04.449Z,5760
2017-03-18T09:06:05.692Z,6136
2017-03-18T09:07:07.108Z,6640
2017-03-18T09:08:08.231Z,7256
2017-03-18T09:09:09.470Z,8004
2017-03-18T09:10:10.729Z,10128
2017-03-18T09:11:11.959Z,11224
2017-03-18T09:12:13.244Z,10352
2017-03-18T09:13:14.470Z,9492
2017-03-18T09:14:15.822Z,8964
2017-03-18T09:15:17.059Z,8844
2017-03-18T09:16:18.313Z,9176
2017-03-18T09:17:19.551Z,8936
2017-03-18T09:18:20.801Z,8100
2017-03-18T09:19:22.072Z,6048
2017-03-18T09:20:23.329Z,6620
2017-03-18T09:21:24.565Z,5248
2017-03-18T09:22:25.798Z,3632
2017-03-18T09:23:27.049Z,4256
2017-03-18T09:24:28.290Z,5904
2017-03-18T09:25:29.609Z,7428
2017-03-18T09:26:30.863Z,8288
2017-03-18T09:27:32.078Z,8152
2017-03-18T09:28:33.327Z,5640
2017-03-18T09:29:34.583Z,6704
2017-03-18T09:30:35.895Z,4872
2017-03-18T09:31:37.103Z,8960
2017-03-18T09:32:38.343Z,8192
2017-03-18T09:33:39.581Z,6692
2017-03-18T09:34:40.834Z,4240
2017-03-18T09:35:42.081Z,6140
2017-03-18T09:36:43.338Z,5372
2017-03-18T09:37:44.587Z,4648
2017-03-18T09:38:45.920Z,3756
2017-03-18T09:39:47.171Z,2700
2017-03-18T09:40:48.406Z,2032
2017-03-18T09:41:49.661Z,1496
2017-03-18T09:42:50.885Z,1512
2017-03-18T09:43:52.123Z,2244
2017-03-18T09:44:53.401Z,4036
2017-03-18T09:45:54.645Z,3528
2017-03-18T09:46:55.923Z,4032
2017-03-18T09:47:57.193Z,5092
2017-03-18T09:48:58.425Z,4868
2017-03-18T09:49:59.661Z,4948
2017-03-18T09:51:00.935Z,4852
2017-03-18T09:52:02.179Z,5128
2017-03-18T09:53:03.459Z,6280
2017-03-18T09:54:04.692Z,5980
2017-03-18T09:55:05.955Z,6624
2017-03-18T09:56:07.251Z,6688
2017-03-18T09:57:08.505Z,6960
2017-03-18T09:58:09.822Z,7244
2017-03-18T09:59:11.121Z,7148
2017-03-18T10:00:12.338Z,7152
2017-03-18T10:01:13.604Z,7776
2017-03-18T10:02:14.830Z,9116
2017-03-18T10:03:16.071Z,9344
2017-03-18T10:04:17.386Z,10640
2017-03-18T10:05:18.551Z,10900
2017-03-18T10:06:19.847Z,11240
2017-03-18T10:07:21.100Z,11232
2017-03-18T10:08:22.327Z,13348
2017-03-18T10:09:23.594Z,13656
2017-03-18T10:10:24.824Z,13864
2017-03-18T10:11:26.121Z,13520
2017-03-18T10:12:27.426Z,13856
2017-03-18T10:13:28.675Z,12356
2017-03-18T10:14:29.970Z,14184
2017-03-18T10:15:31.209Z,13880
2017-03-18T10:16:32.466Z,14228
2017-03-18T10:17:33.850Z,11332
2017-03-18T10:18:35.198Z,12860
2017-03-18T10:19:36.442Z,13680
2017-03-18T10:20:37.785Z,12224
2017-03-18T10:21:39.034Z,12264
2017-03-18T10:22:40.398Z,12076
2017-03-18T10:23:41.761Z,12540
2017-03-18T10:24:43.019Z,12460
2017-03-18T10:25:44.273Z,13464
2017-03-18T10:26:45.629Z,13344
2017-03-18T10:27:46.878Z,12548
2017-03-18T10:28:48.313Z,12660
2017-03-18T10:29:49.593Z,11436
2017-03-18T10:30:50.845Z,12096
2017-03-18T10:31:52.101Z,10460
2017-03-18T10:32:53.360Z,10632
2017-03-18T10:33:54.674Z,14140
2017-03-18T10:34:56.046Z,16696
2017-03-18T10:35:57.332Z,15384
2017-03-18T10:36:58.575Z,12520
2017-03-18T10:37:59.822Z,12716
2017-03-18T10:39:01.087Z,10816
2017-03-18T10:40:02.321Z,13768
2017-03-18T10:41:03.679Z,13260
2017-03-18T10:42:05.002Z,11420
2017-03-18T10:43:06.238Z,14140
2017-03-18T10:44:07.549Z,15516
2017-03-18T10:45:08.813Z,15300
2017-03-18T10:46:10.048Z,15648
2017-03-18T10:47:11.542Z,15052
2017-03-18T10:48:12.772Z,13752
2017-03-18T10:49:14.013Z,12564
2017-03-18T10:50:15.267Z,11728
2017-03-18T10:51:16.522Z,11416
2017-03-18T10:52:17.786Z,9660
2017-03-18T10:53:19.031Z,10480
2017-03-18T10:54:20.281Z,11948
2017-03-18T10:55:21.549Z,12388
2017-03-18T10:56:22.806Z,11844
2017-03-18T10:57:24.031Z,12000
2017-03-18T10:58:25.310Z,12700
2017-03-18T10:59:26.547Z,13564
2017-03-18T11:00:27.875Z,14400
2017-03-18T11:01:29.144Z,14400
2017-03-18T11:02:30.354Z,15004
2017-03-18T11:03:31.623Z,14860
2017-03-18T11:04:32.878Z,13568
2017-03-18T11:05:34.212Z,13528
2017-03-18T11:06:35.473Z,14236
2017-03-18T11:07:36.735Z,14164
2017-03-18T11:08:37.969Z,13544
2017-03-18T11:09:39.227Z,13184
2017-03-18T11:10:40.479Z,12696
2017-03-18T11:11:41.808Z,12968
2017-03-18T11:12:43.059Z,13684
2017-03-18T11:13:44.306Z,13656
2017-03-18T11:14:45.608Z,14844
2017-03-18T11:15:46.872Z,14292
2017-03-18T11:16:48.114Z,14864
2017-03-18T11:17:49.358Z,14056
2017-03-18T11:18:50.636Z,14840
2017-03-18T11:19:51.872Z,16580
2017-03-18T11:20:53.120Z,16672
2017-03-18T11:21:54.441Z,18272
2017-03-18T11:22:55.674Z,16172
2017-03-18T11:23:57.064Z,15992
2017-03-18T11:24:58.211Z,18624
2017-03-18T11:25:59.501Z,18464
2017-03-18T11:27:00.756Z,19392
2017-03-18T11:28:02.004Z,20928
2017-03-18T11:29:03.403Z,17312
2017-03-18T11:30:04.535Z,14884
2017-03-18T11:31:05.821Z,18560
2017-03-18T11:32:07.184Z,15588
2017-03-18T11:33:08.437Z,13440
2017-03-18T11:34:09.741Z,12820
2017-03-18T11:35:10.947Z,12124
2017-03-18T11:36:12.253Z,11912
2017-03-18T11:37:13.548Z,11520
2017-03-18T11:38:14.794Z,11256
2017-03-18T11:39:16.051Z,13388
2017-03-18T11:40:17.285Z,14528
2017-03-18T11:41:18.553Z,13464
2017-03-18T11:42:19.928Z,12612
2017-03-18T11:43:21.264Z,10052
2017-03-18T11:44:22.509Z,11632
2017-03-18T11:45:23.800Z,11848
2017-03-18T11:46:25.080Z,15020
2017-03-18T11:47:26.359Z,12312
2017-03-18T11:48:27.708Z,11320
2017-03-18T11:49:28.960Z,13356
2017-03-18T11:50:30.211Z,10548
2017-03-18T11:51:31.452Z,11320
2017-03-18T11:52:32.693Z,9332
2017-03-18T11:53:33.949Z,8640
2017-03-18T11:54:35.317Z,11348
2017-03-18T11:55:36.564Z,12452
2017-03-18T11:56:37.815Z,11124
2017-03-18T11:57:39.064Z,10688
2017-03-18T11:58:40.312Z,9012
2017-03-18T11:59:41.570Z,9612
2017-03-18T12:00:42.841Z,9936
2017-03-18T12:01:44.149Z,10968
2017-03-18T12:02:45.418Z,12672
2017-03-18T12:03:46.656Z,13596
2017-03-18T12:04:47.895Z,12696
2017-03-18T12:05:49.208Z,12368
2017-03-18T12:06:50.594Z,11888
2017-03-18T12:07:51.836Z,10848
2017-03-18T12:08:53.088Z,10136
2017-03-18T12:09:54.340Z,10836
2017-03-18T12:10:55.602Z,10864
2017-03-18T12:11:56.840Z,11756
2017-03-18T12:12:58.111Z,13240
2017-03-18T12:13:59.360Z,13316
2017-03-18T12:15:00.604Z,12684
2017-03-18T12:16:01.866Z,10196
2017-03-18T12:17:03.093Z,11780
2017-03-18T12:18:04.336Z,15584
2017-03-18T12:19:05.595Z,15620
2017-03-18T12:20:06.857Z,15388
2017-03-18T12:21:08.133Z,13320
2017-03-18T12:22:09.381Z,15716
2017-03-18T12:23:10.620Z,16000
2017-03-18T12:24:11.960Z,17120
2017-03-18T12:25:13.276Z,16116
2017-03-18T12:26:14.541Z,13576
2017-03-18T12:27:15.779Z,11648
2017-03-18T12:28:17.007Z,14520
2017-03-18T12:29:18.246Z,14888
2017-03-18T12:30:19.513Z,10492
2017-03-18T12:31:20.746Z,9272
2017-03-18T12:32:22.115Z,9172
2017-03-18T12:33:23.363Z,10884
2017-03-18T12:34:24.609Z,13152
2017-03-18T12:35:25.850Z,14648
2017-03-18T12:36:27.095Z,14464
2017-03-18T12:37:28.345Z,13836
2017-03-18T12:38:29.606Z,13568
2017-03-18T12:39:30.856Z,13712
2017-03-18T12:40:32.105Z,13764
2017-03-18T12:41:33.339Z,14160
2017-03-18T12:42:34.581Z,13636
2017-03-18T12:43:35.881Z,12760
2017-03-18T12:44:37.146Z,12504
2017-03-18T12:45:38.428Z,13660
2017-03-18T12:46:39.653Z,13028
2017-03-18T12:47:40.901Z,12248
2017-03-18T12:48:42.150Z,10080
2017-03-18T12:49:43.467Z,8672
2017-03-18T12:50:44.707Z,8948
2017-03-18T12:51:45.968Z,9124
2017-03-18T12:52:47.215Z,8468
2017-03-18T12:53:48.488Z,8028
2017-03-18T12:54:49.729Z,8576
2017-03-18T12:55:50.986Z,8392
2017-03-18T12:56:52.308Z,7792
2017-03-18T12:57:53.576Z,7824
2017-03-18T12:58:54.817Z,7464
2017-03-18T12:59:56.073Z,6792
2017-03-18T13:00:57.325Z,6280
2017-03-18T13:01:58.689Z,5604
2017-03-18T13:02:59.933Z,5424
2017-03-18T13:04:01.207Z,5508
2017-03-18T13:05:02.427Z,5872
2017-03-18T13:06:03.737Z,6504
2017-03-18T13:07:05.018Z,7280
2017-03-18T13:08:06.269Z,8200
2017-03-18T13:09:07.514Z,8328
2017-03-18T13:10:08.819Z,8664
2017-03-18T13:11:10.061Z,11108
2017-03-18T13:12:11.293Z,11960
2017-03-18T13:13:12.546Z,12232
2017-03-18T13:14:13.871Z,9884
2017-03-18T13:15:15.125Z,11164
2017-03-18T13:16:16.484Z,10096
2017-03-18T13:17:17.722Z,9520
2017-03-18T13:18:18.967Z,8996
2017-03-18T13:19:20.206Z,8976
2017-03-18T13:20:21.479Z,8976
2017-03-18T13:21:22.688Z,7232
2017-03-18T13:22:24.404Z,6136
2017-03-18T13:23:25.551Z,7136
2017-03-18T13:24:26.787Z,6300
2017-03-18T13:25:28.015Z,5220
2017-03-18T13:26:29.281Z,4076
2017-03-18T13:27:30.516Z,4012
2017-03-18T13:28:31.762Z,4084
2017-03-18T13:29:32.998Z,3956
2017-03-18T13:30:34.314Z,5140
2017-03-18T13:31:35.534Z,5104
2017-03-18T13:32:36.767Z,4904
2017-03-18T13:33:38.037Z,4704
2017-03-18T13:34:39.311Z,4648
2017-03-18T13:35:40.547Z,4828
2017-03-18T13:36:41.844Z,4744
2017-03-18T13:37:43.107Z,4856
2017-03-18T13:38:44.365Z,5192
2017-03-18T13:39:45.584Z,5488
2017-03-18T13:40:46.838Z,5408
2017-03-18T13:41:48.115Z,5884
2017-03-18T13:42:49.435Z,6024
2017-03-18T13:43:50.673Z,7136
2017-03-18T13:44:51.917Z,7504
2017-03-18T13:45:53.151Z,6624
2017-03-18T13:46:54.426Z,7116
2017-03-18T13:47:55.672Z,7004
2017-03-18T13:48:56.913Z,8008
2017-03-18T13:49:58.172Z,6660
2017-03-18T13:50:59.392Z,4724
2017-03-18T13:52:00.639Z,4596
2017-03-18T13:53:01.931Z,3968
2017-03-18T13:54:03.197Z,5064
2017-03-18T13:55:04.469Z,5080
2017-03-18T13:56:05.726Z,5540
2017-03-18T13:57:06.980Z,5496
2017-03-18T13:58:08.237Z,4268
2017-03-18T13:59:09.596Z,3380
2017-03-18T14:00:10.843Z,3472
2017-03-18T14:01:12.091Z,3588
2017-03-18T14:02:13.343Z,3920
2017-03-18T14:03:14.600Z,3528
2017-03-18T14:04:15.914Z,3716
2017-03-18T14:05:17.171Z,3616
2017-03-18T14:06:18.434Z,3776